sensor_id;sensor_type;location;lat;lon;timestamp;P1;durP1;ratioP1;P2;durP2;ratioP2
59587;SDS011;45412;54.472;18.464;2022-12-18T00:02:25;30.20;;;11.90;;
59587;SDS011;45412;54.472;18.464;2022-12-18T00:05:13;25.00;;;10.00;;
59587;SDS011;45412;54.472;18.464;2022-12-18T00:08:00;27.40;;;10.40;;
59587;SDS011;45412;54.472;18.464;2022-12-18T00:10:55;29.50;;;10.70;;
59587;SDS011;45412;54.472;18.464;2022-12-18T00:13:55;39.10;;;13.80;;
59587;SDS011;45412;54.472;18.464;2022-12-18T00:16:45;40.60;;;13.90;;
59587;SDS011;45412;54.472;18.464;2022-12-18T00:19:33;34.80;;;12.50;;
59587;SDS011;45412;54.472;18.464;2022-12-18T00:22:21;29.90;;;11.20;;
59587;SDS011;45412;54.472;18.464;2022-12-18T00:25:09;32.10;;;11.80;;
59587;SDS011;45412;54.472;18.464;2022-12-18T00:27:56;24.30;;;9.50;;
59587;SDS011;45412;54.472;18.464;2022-12-18T00:30:45;28.40;;;10.70;;
59587;SDS011;45412;54.472;18.464;2022-12-18T00:33:34;27.90;;;11.60;;
59587;SDS011;45412;54.472;18.464;2022-12-18T00:36:25;20.50;;;7.40;;
59587;SDS011;45412;54.472;18.464;2022-12-18T00:39:14;30.80;;;12.00;;
59587;SDS011;45412;54.472;18.464;2022-12-18T00:42:04;36.50;;;12.90;;
59587;SDS011;45412;54.472;18.464;2022-12-18T00:45:10;31.80;;;12.20;;
59587;SDS011;45412;54.472;18.464;2022-12-18T00:47:59;29.20;;;11.30;;
59587;SDS011;45412;54.472;18.464;2022-12-18T00:50:50;32.50;;;11.10;;
59587;SDS011;45412;54.472;18.464;2022-12-18T00:53:38;28.80;;;10.10;;
59587;SDS011;45412;54.472;18.464;2022-12-18T00:56:26;30.50;;;10.60;;
59587;SDS011;45412;54.472;18.464;2022-12-18T00:59:15;25.40;;;8.80;;
59587;SDS011;45412;54.472;18.464;2022-12-18T01:02:06;31.40;;;11.30;;
59587;SDS011;45412;54.472;18.464;2022-12-18T01:04:54;31.20;;;10.00;;
59587;SDS011;45412;54.472;18.464;2022-12-18T01:07:42;39.50;;;13.70;;
59587;SDS011;45412;54.472;18.464;2022-12-18T01:10:30;45.90;;;15.00;;
59587;SDS011;45412;54.472;18.464;2022-12-18T01:13:17;41.90;;;15.90;;
59587;SDS011;45412;54.472;18.464;2022-12-18T01:16:11;35.50;;;13.20;;
59587;SDS011;45412;54.472;18.464;2022-12-18T01:19:00;33.70;;;12.80;;
59587;SDS011;45412;54.472;18.464;2022-12-18T01:21:49;35.10;;;11.80;;
59587;SDS011;45412;54.472;18.464;2022-12-18T01:24:37;35.40;;;12.80;;
59587;SDS011;45412;54.472;18.464;2022-12-18T01:27:25;22.40;;;8.10;;
59587;SDS011;45412;54.472;18.464;2022-12-18T01:30:14;43.00;;;15.50;;
59587;SDS011;45412;54.472;18.464;2022-12-18T01:33:04;47.30;;;16.90;;
59587;SDS011;45412;54.472;18.464;2022-12-18T01:35:53;46.00;;;17.00;;
59587;SDS011;45412;54.472;18.464;2022-12-18T01:38:41;39.30;;;14.50;;
59587;SDS011;45412;54.472;18.464;2022-12-18T01:41:31;35.70;;;14.40;;
59587;SDS011;45412;54.472;18.464;2022-12-18T01:45:02;37.50;;;14.20;;
59587;SDS011;45412;54.472;18.464;2022-12-18T01:48:02;34.20;;;13.10;;
59587;SDS011;45412;54.472;18.464;2022-12-18T01:50:54;31.40;;;12.40;;
59587;SDS011;45412;54.472;18.464;2022-12-18T01:53:43;37.20;;;13.20;;
59587;SDS011;45412;54.472;18.464;2022-12-18T01:56:32;42.60;;;14.80;;
59587;SDS011;45412;54.472;18.464;2022-12-18T01:59:19;48.60;;;18.00;;
59587;SDS011;45412;54.472;18.464;2022-12-18T02:02:08;44.30;;;16.60;;
59587;SDS011;45412;54.472;18.464;2022-12-18T02:04:56;39.70;;;14.90;;
59587;SDS011;45412;54.472;18.464;2022-12-18T02:15:12;65.40;;;20.10;;
59587;SDS011;45412;54.472;18.464;2022-12-18T02:21:08;101.70;;;30.40;;
59587;SDS011;45412;54.472;18.464;2022-12-18T02:24:35;79.90;;;26.70;;
59587;SDS011;45412;54.472;18.464;2022-12-18T02:27:35;73.70;;;27.70;;
59587;SDS011;45412;54.472;18.464;2022-12-18T02:30:28;58.10;;;22.30;;
59587;SDS011;45412;54.472;18.464;2022-12-18T02:33:19;46.50;;;17.60;;
59587;SDS011;45412;54.472;18.464;2022-12-18T02:36:13;53.40;;;20.70;;
59587;SDS011;45412;54.472;18.464;2022-12-18T02:39:04;35.80;;;13.90;;
59587;SDS011;45412;54.472;18.464;2022-12-18T02:41:56;34.80;;;14.10;;
59587;SDS011;45412;54.472;18.464;2022-12-18T02:44:47;32.80;;;10.80;;
59587;SDS011;45412;54.472;18.464;2022-12-18T02:47:43;38.90;;;13.70;;
59587;SDS011;45412;54.472;18.464;2022-12-18T02:50:38;33.60;;;12.90;;
59587;SDS011;45412;54.472;18.464;2022-12-18T02:53:39;27.30;;;10.20;;
59587;SDS011;45412;54.472;18.464;2022-12-18T02:57:00;29.90;;;11.30;;
59587;SDS011;45412;54.472;18.464;2022-12-18T02:59:58;32.50;;;10.90;;
59587;SDS011;45412;54.472;18.464;2022-12-18T03:02:58;29.30;;;10.80;;
59587;SDS011;45412;54.472;18.464;2022-12-18T03:05:55;23.70;;;9.50;;
59587;SDS011;45412;54.472;18.464;2022-12-18T03:08:54;31.40;;;10.90;;
59587;SDS011;45412;54.472;18.464;2022-12-18T03:11:51;33.10;;;12.40;;
59587;SDS011;45412;54.472;18.464;2022-12-18T03:15:18;29.70;;;11.50;;
59587;SDS011;45412;54.472;18.464;2022-12-18T03:18:23;25.80;;;10.00;;
59587;SDS011;45412;54.472;18.464;2022-12-18T03:21:21;32.00;;;12.10;;
59587;SDS011;45412;54.472;18.464;2022-12-18T03:24:15;31.90;;;11.20;;
59587;SDS011;45412;54.472;18.464;2022-12-18T03:27:09;18.20;;;7.60;;
59587;SDS011;45412;54.472;18.464;2022-12-18T03:30:10;28.80;;;9.50;;
59587;SDS011;45412;54.472;18.464;2022-12-18T03:33:08;29.80;;;11.90;;
59587;SDS011;45412;54.472;18.464;2022-12-18T03:36:02;26.00;;;11.40;;
59587;SDS011;45412;54.472;18.464;2022-12-18T03:38:50;25.60;;;9.70;;
59587;SDS011;45412;54.472;18.464;2022-12-18T03:48:17;24.40;;;9.10;;
59587;SDS011;45412;54.472;18.464;2022-12-18T03:51:48;23.10;;;8.10;;
59587;SDS011;45412;54.472;18.464;2022-12-18T03:54:40;25.70;;;10.90;;
59587;SDS011;45412;54.472;18.464;2022-12-18T03:57:33;28.20;;;10.40;;
59587;SDS011;45412;54.472;18.464;2022-12-18T04:00:23;32.50;;;10.80;;
59587;SDS011;45412;54.472;18.464;2022-12-18T04:03:18;24.10;;;9.20;;
59587;SDS011;45412;54.472;18.464;2022-12-18T04:06:12;25.70;;;9.40;;
59587;SDS011;45412;54.472;18.464;2022-12-18T04:09:03;24.00;;;8.30;;
59587;SDS011;45412;54.472;18.464;2022-12-18T04:11:54;23.90;;;9.10;;
59587;SDS011;45412;54.472;18.464;2022-12-18T04:14:43;28.20;;;9.10;;
59587;SDS011;45412;54.472;18.464;2022-12-18T04:17:33;27.60;;;10.10;;
59587;SDS011;45412;54.472;18.464;2022-12-18T04:20:22;21.50;;;8.30;;
59587;SDS011;45412;54.472;18.464;2022-12-18T04:23:10;34.00;;;12.30;;
59587;SDS011;45412;54.472;18.464;2022-12-18T04:25:59;45.70;;;14.80;;
59587;SDS011;45412;54.472;18.464;2022-12-18T04:28:58;39.70;;;15.00;;
59587;SDS011;45412;54.472;18.464;2022-12-18T04:31:45;35.30;;;12.80;;
59587;SDS011;45412;54.472;18.464;2022-12-18T04:34:33;25.70;;;10.90;;
59587;SDS011;45412;54.472;18.464;2022-12-18T04:37:21;24.40;;;9.50;;
59587;SDS011;45412;54.472;18.464;2022-12-18T04:40:09;21.60;;;8.80;;
59587;SDS011;45412;54.472;18.464;2022-12-18T04:43:01;20.00;;;7.90;;
59587;SDS011;45412;54.472;18.464;2022-12-18T04:45:49;18.90;;;7.60;;
59587;SDS011;45412;54.472;18.464;2022-12-18T04:48:37;23.40;;;9.40;;
59587;SDS011;45412;54.472;18.464;2022-12-18T04:51:25;26.40;;;10.20;;
59587;SDS011;45412;54.472;18.464;2022-12-18T04:54:13;22.50;;;8.60;;
59587;SDS011;45412;54.472;18.464;2022-12-18T04:57:01;21.50;;;7.80;;
59587;SDS011;45412;54.472;18.464;2022-12-18T04:59:48;19.70;;;7.20;;
59587;SDS011;45412;54.472;18.464;2022-12-18T05:02:36;17.20;;;6.50;;
59587;SDS011;45412;54.472;18.464;2022-12-18T05:05:24;17.50;;;6.50;;
59587;SDS011;45412;54.472;18.464;2022-12-18T05:08:12;16.30;;;6.40;;
59587;SDS011;45412;54.472;18.464;2022-12-18T05:13:56;19.90;;;5.90;;
59587;SDS011;45412;54.472;18.464;2022-12-18T05:16:44;26.20;;;8.50;;
59587;SDS011;45412;54.472;18.464;2022-12-18T05:19:32;24.70;;;8.50;;
59587;SDS011;45412;54.472;18.464;2022-12-18T05:22:20;20.20;;;8.30;;
59587;SDS011;45412;54.472;18.464;2022-12-18T05:25:08;18.70;;;6.50;;
59587;SDS011;45412;54.472;18.464;2022-12-18T05:27:55;16.20;;;6.50;;
59587;SDS011;45412;54.472;18.464;2022-12-18T05:30:51;16.30;;;6.80;;
59587;SDS011;45412;54.472;18.464;2022-12-18T05:33:41;15.20;;;6.20;;
59587;SDS011;45412;54.472;18.464;2022-12-18T05:36:29;15.40;;;5.90;;
59587;SDS011;45412;54.472;18.464;2022-12-18T05:39:17;18.50;;;6.50;;
59587;SDS011;45412;54.472;18.464;2022-12-18T05:42:04;19.20;;;7.50;;
59587;SDS011;45412;54.472;18.464;2022-12-18T05:44:52;24.10;;;8.80;;
59587;SDS011;45412;54.472;18.464;2022-12-18T05:47:39;20.60;;;7.90;;
59587;SDS011;45412;54.472;18.464;2022-12-18T05:50:27;17.40;;;6.90;;
59587;SDS011;45412;54.472;18.464;2022-12-18T05:53:20;17.30;;;6.70;;
59587;SDS011;45412;54.472;18.464;2022-12-18T05:56:14;17.00;;;6.50;;
59587;SDS011;45412;54.472;18.464;2022-12-18T05:59:03;16.10;;;6.70;;
59587;SDS011;45412;54.472;18.464;2022-12-18T06:01:50;16.40;;;6.20;;
59587;SDS011;45412;54.472;18.464;2022-12-18T06:04:39;15.50;;;6.40;;
59587;SDS011;45412;54.472;18.464;2022-12-18T06:07:26;17.40;;;7.20;;
59587;SDS011;45412;54.472;18.464;2022-12-18T06:10:14;21.60;;;8.30;;
59587;SDS011;45412;54.472;18.464;2022-12-18T06:13:02;20.40;;;9.00;;
59587;SDS011;45412;54.472;18.464;2022-12-18T06:15:51;18.20;;;7.40;;
59587;SDS011;45412;54.472;18.464;2022-12-18T06:18:38;16.80;;;6.90;;
59587;SDS011;45412;54.472;18.464;2022-12-18T06:21:27;15.60;;;7.20;;
59587;SDS011;45412;54.472;18.464;2022-12-18T06:24:16;12.40;;;5.00;;
59587;SDS011;45412;54.472;18.464;2022-12-18T06:27:04;15.90;;;6.50;;
59587;SDS011;45412;54.472;18.464;2022-12-18T06:29:52;18.30;;;7.20;;
59587;SDS011;45412;54.472;18.464;2022-12-18T06:32:40;15.40;;;6.00;;
59587;SDS011;45412;54.472;18.464;2022-12-18T06:35:28;21.70;;;8.00;;
59587;SDS011;45412;54.472;18.464;2022-12-18T06:38:15;24.00;;;9.30;;
59587;SDS011;45412;54.472;18.464;2022-12-18T06:41:11;18.50;;;8.10;;
59587;SDS011;45412;54.472;18.464;2022-12-18T06:44:00;17.30;;;7.00;;
59587;SDS011;45412;54.472;18.464;2022-12-18T06:46:48;17.30;;;7.50;;
59587;SDS011;45412;54.472;18.464;2022-12-18T06:49:36;14.60;;;6.10;;
59587;SDS011;45412;54.472;18.464;2022-12-18T06:52:24;17.60;;;6.50;;
59587;SDS011;45412;54.472;18.464;2022-12-18T06:55:12;15.00;;;6.10;;
59587;SDS011;45412;54.472;18.464;2022-12-18T06:58:00;20.20;;;8.60;;
59587;SDS011;45412;54.472;18.464;2022-12-18T07:00:49;24.50;;;9.60;;
59587;SDS011;45412;54.472;18.464;2022-12-18T07:03:38;18.90;;;7.90;;
59587;SDS011;45412;54.472;18.464;2022-12-18T07:06:27;22.90;;;7.90;;
59587;SDS011;45412;54.472;18.464;2022-12-18T07:09:15;23.10;;;8.60;;
59587;SDS011;45412;54.472;18.464;2022-12-18T07:12:03;19.70;;;7.80;;
59587;SDS011;45412;54.472;18.464;2022-12-18T07:14:52;17.30;;;6.30;;
59587;SDS011;45412;54.472;18.464;2022-12-18T07:17:39;20.50;;;7.40;;
59587;SDS011;45412;54.472;18.464;2022-12-18T07:20:27;13.50;;;5.70;;
59587;SDS011;45412;54.472;18.464;2022-12-18T07:23:15;19.60;;;8.40;;
59587;SDS011;45412;54.472;18.464;2022-12-18T07:26:07;23.20;;;9.00;;
59587;SDS011;45412;54.472;18.464;2022-12-18T07:28:57;23.00;;;9.30;;
59587;SDS011;45412;54.472;18.464;2022-12-18T07:31:45;21.00;;;8.80;;
59587;SDS011;45412;54.472;18.464;2022-12-18T07:34:33;21.30;;;8.60;;
59587;SDS011;45412;54.472;18.464;2022-12-18T07:37:23;21.40;;;8.20;;
59587;SDS011;45412;54.472;18.464;2022-12-18T07:40:11;24.20;;;9.90;;
59587;SDS011;45412;54.472;18.464;2022-12-18T07:43:00;27.20;;;9.90;;
59587;SDS011;45412;54.472;18.464;2022-12-18T07:45:49;20.70;;;8.60;;
59587;SDS011;45412;54.472;18.464;2022-12-18T07:48:38;26.50;;;10.10;;
59587;SDS011;45412;54.472;18.464;2022-12-18T07:51:25;23.30;;;9.80;;
59587;SDS011;45412;54.472;18.464;2022-12-18T07:54:13;24.80;;;8.90;;
59587;SDS011;45412;54.472;18.464;2022-12-18T07:57:01;24.40;;;10.50;;
59587;SDS011;45412;54.472;18.464;2022-12-18T07:59:48;21.90;;;9.10;;
59587;SDS011;45412;54.472;18.464;2022-12-18T08:02:36;22.00;;;9.50;;
59587;SDS011;45412;54.472;18.464;2022-12-18T08:05:24;22.40;;;9.30;;
59587;SDS011;45412;54.472;18.464;2022-12-18T08:08:13;19.80;;;7.60;;
59587;SDS011;45412;54.472;18.464;2022-12-18T08:11:01;20.30;;;8.80;;
59587;SDS011;45412;54.472;18.464;2022-12-18T08:13:49;19.10;;;8.10;;
59587;SDS011;45412;54.472;18.464;2022-12-18T08:16:38;19.90;;;7.90;;
59587;SDS011;45412;54.472;18.464;2022-12-18T08:19:26;20.10;;;8.70;;
59587;SDS011;45412;54.472;18.464;2022-12-18T08:22:13;20.90;;;8.60;;
59587;SDS011;45412;54.472;18.464;2022-12-18T08:25:03;21.80;;;9.10;;
59587;SDS011;45412;54.472;18.464;2022-12-18T08:27:52;18.00;;;8.60;;
59587;SDS011;45412;54.472;18.464;2022-12-18T08:30:40;21.30;;;9.60;;
59587;SDS011;45412;54.472;18.464;2022-12-18T08:33:28;19.80;;;9.20;;
59587;SDS011;45412;54.472;18.464;2022-12-18T08:36:16;21.00;;;9.20;;
59587;SDS011;45412;54.472;18.464;2022-12-18T08:39:04;17.80;;;9.00;;
59587;SDS011;45412;54.472;18.464;2022-12-18T08:41:52;19.10;;;9.00;;
59587;SDS011;45412;54.472;18.464;2022-12-18T08:44:59;20.80;;;9.70;;
59587;SDS011;45412;54.472;18.464;2022-12-18T08:47:47;21.60;;;10.90;;
59587;SDS011;45412;54.472;18.464;2022-12-18T08:50:34;21.00;;;10.60;;
59587;SDS011;45412;54.472;18.464;2022-12-18T08:53:22;19.80;;;10.60;;
59587;SDS011;45412;54.472;18.464;2022-12-18T08:56:12;21.80;;;11.10;;
59587;SDS011;45412;54.472;18.464;2022-12-18T08:59:01;22.20;;;12.30;;
59587;SDS011;45412;54.472;18.464;2022-12-18T09:01:49;23.00;;;12.30;;
59587;SDS011;45412;54.472;18.464;2022-12-18T09:04:38;19.30;;;11.60;;
59587;SDS011;45412;54.472;18.464;2022-12-18T09:07:27;22.90;;;13.40;;
59587;SDS011;45412;54.472;18.464;2022-12-18T09:10:15;22.30;;;13.00;;
59587;SDS011;45412;54.472;18.464;2022-12-18T09:13:04;22.60;;;12.00;;
59587;SDS011;45412;54.472;18.464;2022-12-18T09:15:53;21.60;;;12.60;;
59587;SDS011;45412;54.472;18.464;2022-12-18T09:18:42;21.70;;;11.20;;
59587;SDS011;45412;54.472;18.464;2022-12-18T09:21:32;20.80;;;11.30;;
59587;SDS011;45412;54.472;18.464;2022-12-18T09:24:23;22.00;;;11.70;;
59587;SDS011;45412;54.472;18.464;2022-12-18T09:27:11;21.90;;;11.40;;
59587;SDS011;45412;54.472;18.464;2022-12-18T09:30:00;21.10;;;11.10;;
59587;SDS011;45412;54.472;18.464;2022-12-18T09:32:48;18.30;;;10.70;;
59587;SDS011;45412;54.472;18.464;2022-12-18T09:35:36;20.30;;;10.20;;
59587;SDS011;45412;54.472;18.464;2022-12-18T09:38:25;19.20;;;10.10;;
59587;SDS011;45412;54.472;18.464;2022-12-18T09:44:40;17.10;;;9.60;;
59587;SDS011;45412;54.472;18.464;2022-12-18T09:47:35;17.10;;;10.60;;
59587;SDS011;45412;54.472;18.464;2022-12-18T09:50:32;18.10;;;10.20;;
59587;SDS011;45412;54.472;18.464;2022-12-18T09:53:26;17.70;;;10.40;;
59587;SDS011;45412;54.472;18.464;2022-12-18T09:56:21;18.50;;;10.20;;
59587;SDS011;45412;54.472;18.464;2022-12-18T09:59:38;18.60;;;10.60;;
59587;SDS011;45412;54.472;18.464;2022-12-18T10:02:30;19.10;;;10.20;;
59587;SDS011;45412;54.472;18.464;2022-12-18T10:05:29;20.00;;;10.90;;
59587;SDS011;45412;54.472;18.464;2022-12-18T10:15:05;19.90;;;10.60;;
59587;SDS011;45412;54.472;18.464;2022-12-18T10:21:00;19.90;;;10.70;;
59587;SDS011;45412;54.472;18.464;2022-12-18T10:27:18;19.10;;;10.10;;
59587;SDS011;45412;54.472;18.464;2022-12-18T10:30:18;18.90;;;10.30;;
59587;SDS011;45412;54.472;18.464;2022-12-18T10:33:18;17.50;;;9.80;;
59587;SDS011;45412;54.472;18.464;2022-12-18T10:36:11;17.70;;;10.00;;
59587;SDS011;45412;54.472;18.464;2022-12-18T10:42:19;19.60;;;10.90;;
59587;SDS011;45412;54.472;18.464;2022-12-18T10:45:14;18.10;;;10.40;;
59587;SDS011;45412;54.472;18.464;2022-12-18T10:48:03;18.40;;;9.80;;
59587;SDS011;45412;54.472;18.464;2022-12-18T10:50:51;19.00;;;11.00;;
59587;SDS011;45412;54.472;18.464;2022-12-18T10:54:04;19.30;;;10.40;;
59587;SDS011;45412;54.472;18.464;2022-12-18T10:56:54;17.40;;;9.00;;
59587;SDS011;45412;54.472;18.464;2022-12-18T11:00:23;17.60;;;9.20;;
59587;SDS011;45412;54.472;18.464;2022-12-18T11:03:36;19.80;;;11.10;;
59587;SDS011;45412;54.472;18.464;2022-12-18T11:06:27;17.30;;;9.90;;
59587;SDS011;45412;54.472;18.464;2022-12-18T11:09:20;19.80;;;10.50;;
59587;SDS011;45412;54.472;18.464;2022-12-18T11:12:18;19.20;;;9.50;;
59587;SDS011;45412;54.472;18.464;2022-12-18T11:15:24;17.70;;;9.60;;
59587;SDS011;45412;54.472;18.464;2022-12-18T11:18:38;17.60;;;9.70;;
59587;SDS011;45412;54.472;18.464;2022-12-18T11:21:26;18.50;;;10.00;;
59587;SDS011;45412;54.472;18.464;2022-12-18T11:24:30;18.40;;;9.70;;
59587;SDS011;45412;54.472;18.464;2022-12-18T11:27:21;20.00;;;10.10;;
59587;SDS011;45412;54.472;18.464;2022-12-18T11:30:31;18.70;;;9.60;;
59587;SDS011;45412;54.472;18.464;2022-12-18T11:33:20;17.20;;;8.90;;
59587;SDS011;45412;54.472;18.464;2022-12-18T11:36:09;17.10;;;8.40;;
59587;SDS011;45412;54.472;18.464;2022-12-18T11:38:57;19.10;;;9.40;;
59587;SDS011;45412;54.472;18.464;2022-12-18T11:41:56;17.60;;;9.00;;
59587;SDS011;45412;54.472;18.464;2022-12-18T11:48:16;20.70;;;9.90;;
59587;SDS011;45412;54.472;18.464;2022-12-18T11:51:05;23.50;;;10.40;;
59587;SDS011;45412;54.472;18.464;2022-12-18T11:54:09;18.50;;;9.00;;
59587;SDS011;45412;54.472;18.464;2022-12-18T12:00:19;17.10;;;8.30;;
59587;SDS011;45412;54.472;18.464;2022-12-18T12:06:07;20.10;;;8.70;;
59587;SDS011;45412;54.472;18.464;2022-12-18T12:09:45;21.00;;;8.90;;
59587;SDS011;45412;54.472;18.464;2022-12-18T12:13:27;17.60;;;7.60;;
59587;SDS011;45412;54.472;18.464;2022-12-18T12:16:30;19.30;;;8.50;;
59587;SDS011;45412;54.472;18.464;2022-12-18T12:32:45;19.10;;;7.50;;
59587;SDS011;45412;54.472;18.464;2022-12-18T12:36:02;17.50;;;6.90;;
59587;SDS011;45412;54.472;18.464;2022-12-18T12:38:55;18.10;;;6.90;;
59587;SDS011;45412;54.472;18.464;2022-12-18T12:41:47;16.70;;;7.00;;
59587;SDS011;45412;54.472;18.464;2022-12-18T12:44:55;19.80;;;7.00;;
59587;SDS011;45412;54.472;18.464;2022-12-18T12:47:46;17.00;;;6.40;;
59587;SDS011;45412;54.472;18.464;2022-12-18T12:50:37;17.40;;;6.40;;
59587;SDS011;45412;54.472;18.464;2022-12-18T12:53:31;15.00;;;6.50;;
59587;SDS011;45412;54.472;18.464;2022-12-18T12:56:26;17.20;;;6.50;;
59587;SDS011;45412;54.472;18.464;2022-12-18T13:00:20;16.60;;;5.50;;
59587;SDS011;45412;54.472;18.464;2022-12-18T13:03:24;16.00;;;5.70;;
59587;SDS011;45412;54.472;18.464;2022-12-18T13:09:33;15.30;;;5.30;;
59587;SDS011;45412;54.472;18.464;2022-12-18T13:12:22;16.80;;;5.50;;
59587;SDS011;45412;54.472;18.464;2022-12-18T13:18:32;14.30;;;5.40;;
59587;SDS011;45412;54.472;18.464;2022-12-18T13:24:27;15.90;;;5.70;;
59587;SDS011;45412;54.472;18.464;2022-12-18T13:30:49;15.90;;;5.90;;
59587;SDS011;45412;54.472;18.464;2022-12-18T13:33:47;15.00;;;5.50;;
59587;SDS011;45412;54.472;18.464;2022-12-18T13:36:57;15.70;;;5.40;;
59587;SDS011;45412;54.472;18.464;2022-12-18T13:43:55;14.90;;;4.20;;
59587;SDS011;45412;54.472;18.464;2022-12-18T13:46:46;14.90;;;5.80;;
59587;SDS011;45412;54.472;18.464;2022-12-18T13:52:34;13.30;;;5.70;;
59587;SDS011;45412;54.472;18.464;2022-12-18T13:55:25;14.50;;;5.10;;
59587;SDS011;45412;54.472;18.464;2022-12-18T13:58:13;18.90;;;5.60;;
59587;SDS011;45412;54.472;18.464;2022-12-18T14:01:00;15.80;;;5.80;;
59587;SDS011;45412;54.472;18.464;2022-12-18T14:04:19;12.80;;;5.10;;
59587;SDS011;45412;54.472;18.464;2022-12-18T14:07:23;14.60;;;5.00;;
59587;SDS011;45412;54.472;18.464;2022-12-18T14:10:16;16.50;;;5.80;;
59587;SDS011;45412;54.472;18.464;2022-12-18T14:13:34;17.00;;;5.20;;
59587;SDS011;45412;54.472;18.464;2022-12-18T14:16:24;13.30;;;4.80;;
59587;SDS011;45412;54.472;18.464;2022-12-18T14:19:15;17.20;;;5.30;;
59587;SDS011;45412;54.472;18.464;2022-12-18T14:22:05;15.60;;;5.10;;
59587;SDS011;45412;54.472;18.464;2022-12-18T14:28:14;12.80;;;4.80;;
59587;SDS011;45412;54.472;18.464;2022-12-18T14:31:02;17.90;;;6.10;;
59587;SDS011;45412;54.472;18.464;2022-12-18T14:33:51;18.30;;;6.60;;
59587;SDS011;45412;54.472;18.464;2022-12-18T14:36:39;17.90;;;6.60;;
59587;SDS011;45412;54.472;18.464;2022-12-18T14:39:27;17.30;;;6.40;;
59587;SDS011;45412;54.472;18.464;2022-12-18T14:42:15;17.20;;;6.30;;
59587;SDS011;45412;54.472;18.464;2022-12-18T14:45:35;17.50;;;6.90;;
59587;SDS011;45412;54.472;18.464;2022-12-18T14:48:40;19.50;;;6.20;;
59587;SDS011;45412;54.472;18.464;2022-12-18T14:51:31;18.80;;;6.90;;
59587;SDS011;45412;54.472;18.464;2022-12-18T14:54:21;17.80;;;6.10;;
59587;SDS011;45412;54.472;18.464;2022-12-18T14:57:25;17.20;;;6.50;;
59587;SDS011;45412;54.472;18.464;2022-12-18T15:00:24;15.80;;;6.30;;
59587;SDS011;45412;54.472;18.464;2022-12-18T15:03:17;16.60;;;5.20;;
59587;SDS011;45412;54.472;18.464;2022-12-18T15:06:34;15.50;;;5.70;;
59587;SDS011;45412;54.472;18.464;2022-12-18T15:09:25;17.90;;;6.60;;
59587;SDS011;45412;54.472;18.464;2022-12-18T15:12:25;16.70;;;6.60;;
59587;SDS011;45412;54.472;18.464;2022-12-18T15:18:33;15.70;;;5.90;;
59587;SDS011;45412;54.472;18.464;2022-12-18T15:21:28;17.80;;;6.30;;
59587;SDS011;45412;54.472;18.464;2022-12-18T15:24:21;24.20;;;8.20;;
59587;SDS011;45412;54.472;18.464;2022-12-18T15:27:28;22.20;;;7.80;;
59587;SDS011;45412;54.472;18.464;2022-12-18T15:30:23;26.80;;;9.60;;
59587;SDS011;45412;54.472;18.464;2022-12-18T15:33:26;22.40;;;7.00;;
59587;SDS011;45412;54.472;18.464;2022-12-18T15:36:20;20.50;;;6.40;;
59587;SDS011;45412;54.472;18.464;2022-12-18T15:39:13;23.30;;;7.20;;
59587;SDS011;45412;54.472;18.464;2022-12-18T15:42:00;16.00;;;5.60;;
59587;SDS011;45412;54.472;18.464;2022-12-18T15:45:11;21.00;;;6.90;;
59587;SDS011;45412;54.472;18.464;2022-12-18T15:48:00;19.90;;;6.80;;
59587;SDS011;45412;54.472;18.464;2022-12-18T15:54:10;20.00;;;7.50;;
59587;SDS011;45412;54.472;18.464;2022-12-18T15:57:03;23.70;;;7.00;;
59587;SDS011;45412;54.472;18.464;2022-12-18T16:00:11;20.60;;;7.50;;
59587;SDS011;45412;54.472;18.464;2022-12-18T16:03:00;19.10;;;6.60;;
59587;SDS011;45412;54.472;18.464;2022-12-18T16:05:49;14.50;;;6.70;;
59587;SDS011;45412;54.472;18.464;2022-12-18T16:08:36;21.10;;;7.80;;
59587;SDS011;45412;54.472;18.464;2022-12-18T16:11:29;23.40;;;8.10;;
59587;SDS011;45412;54.472;18.464;2022-12-18T16:14:26;22.10;;;8.00;;
59587;SDS011;45412;54.472;18.464;2022-12-18T16:17:17;23.20;;;7.70;;
59587;SDS011;45412;54.472;18.464;2022-12-18T16:20:06;21.00;;;7.50;;
59587;SDS011;45412;54.472;18.464;2022-12-18T16:23:04;25.70;;;8.90;;
59587;SDS011;45412;54.472;18.464;2022-12-18T16:25:52;23.70;;;9.30;;
59587;SDS011;45412;54.472;18.464;2022-12-18T16:28:40;25.50;;;7.80;;
59587;SDS011;45412;54.472;18.464;2022-12-18T16:31:34;26.20;;;8.60;;
59587;SDS011;45412;54.472;18.464;2022-12-18T16:34:24;27.50;;;9.30;;
59587;SDS011;45412;54.472;18.464;2022-12-18T16:37:16;23.10;;;8.20;;
59587;SDS011;45412;54.472;18.464;2022-12-18T16:40:05;27.10;;;9.40;;
59587;SDS011;45412;54.472;18.464;2022-12-18T16:42:56;26.10;;;9.50;;
59587;SDS011;45412;54.472;18.464;2022-12-18T16:45:43;30.60;;;9.80;;
59587;SDS011;45412;54.472;18.464;2022-12-18T16:48:34;25.30;;;9.30;;
59587;SDS011;45412;54.472;18.464;2022-12-18T16:51:22;41.40;;;14.00;;
59587;SDS011;45412;54.472;18.464;2022-12-18T16:54:10;42.50;;;13.70;;
59587;SDS011;45412;54.472;18.464;2022-12-18T16:57:05;42.70;;;14.30;;
59587;SDS011;45412;54.472;18.464;2022-12-18T16:59:53;30.70;;;11.00;;
59587;SDS011;45412;54.472;18.464;2022-12-18T17:02:46;35.50;;;12.30;;
59587;SDS011;45412;54.472;18.464;2022-12-18T17:05:36;34.50;;;11.10;;
59587;SDS011;45412;54.472;18.464;2022-12-18T17:08:24;29.00;;;10.10;;
59587;SDS011;45412;54.472;18.464;2022-12-18T17:11:12;33.50;;;12.30;;
59587;SDS011;45412;54.472;18.464;2022-12-18T17:14:15;27.20;;;9.10;;
59587;SDS011;45412;54.472;18.464;2022-12-18T17:17:05;29.60;;;8.90;;
59587;SDS011;45412;54.472;18.464;2022-12-18T17:20:07;28.60;;;9.30;;
59587;SDS011;45412;54.472;18.464;2022-12-18T17:22:57;35.00;;;10.80;;
59587;SDS011;45412;54.472;18.464;2022-12-18T17:25:46;30.80;;;10.60;;
59587;SDS011;45412;54.472;18.464;2022-12-18T17:28:34;27.50;;;9.60;;
59587;SDS011;45412;54.472;18.464;2022-12-18T17:31:23;27.80;;;9.30;;
59587;SDS011;45412;54.472;18.464;2022-12-18T17:34:12;29.60;;;9.10;;
59587;SDS011;45412;54.472;18.464;2022-12-18T17:37:01;28.20;;;8.30;;
59587;SDS011;45412;54.472;18.464;2022-12-18T17:39:49;26.60;;;8.90;;
59587;SDS011;45412;54.472;18.464;2022-12-18T17:42:36;26.90;;;9.10;;
59587;SDS011;45412;54.472;18.464;2022-12-18T17:45:24;22.60;;;7.80;;
59587;SDS011;45412;54.472;18.464;2022-12-18T17:48:12;26.50;;;9.10;;
59587;SDS011;45412;54.472;18.464;2022-12-18T17:51:01;36.60;;;11.30;;
59587;SDS011;45412;54.472;18.464;2022-12-18T17:53:50;26.50;;;9.20;;
59587;SDS011;45412;54.472;18.464;2022-12-18T17:56:38;30.10;;;10.10;;
59587;SDS011;45412;54.472;18.464;2022-12-18T17:59:26;21.90;;;9.30;;
59587;SDS011;45412;54.472;18.464;2022-12-18T18:02:14;26.50;;;7.70;;
59587;SDS011;45412;54.472;18.464;2022-12-18T18:05:03;27.60;;;10.40;;
59587;SDS011;45412;54.472;18.464;2022-12-18T18:07:50;29.10;;;9.70;;
59587;SDS011;45412;54.472;18.464;2022-12-18T18:10:39;25.20;;;9.70;;
59587;SDS011;45412;54.472;18.464;2022-12-18T18:13:28;25.10;;;9.40;;
59587;SDS011;45412;54.472;18.464;2022-12-18T18:16:38;26.90;;;9.20;;
59587;SDS011;45412;54.472;18.464;2022-12-18T18:19:28;33.10;;;9.30;;